sensor_id;sensor_type;location;lat;lon;timestamp;pressure;altitude;pressure_sealevel;temperature
10869;BMP180;62667;48.698;8.762;2022-09-09T00:00:44;95703.00;;;14.20
10869;BMP180;62667;48.698;8.762;2022-09-09T00:03:17;95697.00;;;14.10
10869;BMP180;62667;48.698;8.762;2022-09-09T00:05:53;95699.00;;;14.20
10869;BMP180;62667;48.698;8.762;2022-09-09T00:08:32;95693.00;;;14.30
10869;BMP180;62667;48.698;8.762;2022-09-09T00:11:04;95696.00;;;14.30
10869;BMP180;62667;48.698;8.762;2022-09-09T00:13:36;95695.00;;;14.10
10869;BMP180;62667;48.698;8.762;2022-09-09T00:16:10;95684.00;;;13.90
10869;BMP180;62667;48.698;8.762;2022-09-09T00:18:51;95682.00;;;14.00
10869;BMP180;62667;48.698;8.762;2022-09-09T00:21:25;95684.00;;;13.90
10869;BMP180;62667;48.698;8.762;2022-09-09T00:23:55;95681.00;;;13.90
10869;BMP180;62667;48.698;8.762;2022-09-09T00:26:30;95685.00;;;14.00
10869;BMP180;62667;48.698;8.762;2022-09-09T00:29:05;95678.00;;;14.10
10869;BMP180;62667;48.698;8.762;2022-09-09T00:31:36;95678.00;;;14.20
10869;BMP180;62667;48.698;8.762;2022-09-09T00:34:09;95668.00;;;14.30
10869;BMP180;62667;48.698;8.762;2022-09-09T00:36:39;95675.00;;;14.40
10869;BMP180;62667;48.698;8.762;2022-09-09T00:39:12;95685.00;;;14.50
10869;BMP180;62667;48.698;8.762;2022-09-09T00:41:51;95686.00;;;14.50
10869;BMP180;62667;48.698;8.762;2022-09-09T00:44:30;95685.00;;;14.40
10869;BMP180;62667;48.698;8.762;2022-09-09T00:47:18;95678.00;;;14.40
10869;BMP180;62667;48.698;8.762;2022-09-09T00:49:59;95681.00;;;14.50
10869;BMP180;62667;48.698;8.762;2022-09-09T00:52:35;95678.00;;;14.50
10869;BMP180;62667;48.698;8.762;2022-09-09T00:55:08;95678.00;;;14.50
10869;BMP180;62667;48.698;8.762;2022-09-09T00:57:40;95675.00;;;14.50
10869;BMP180;62667;48.698;8.762;2022-09-09T01:00:19;95678.00;;;14.50
10869;BMP180;62667;48.698;8.762;2022-09-09T01:02:58;95687.00;;;14.50
10869;BMP180;62667;48.698;8.762;2022-09-09T01:05:35;95691.00;;;14.40
10869;BMP180;62667;48.698;8.762;2022-09-09T01:08:11;95690.00;;;14.40
10869;BMP180;62667;48.698;8.762;2022-09-09T01:10:49;95687.00;;;14.40
10869;BMP180;62667;48.698;8.762;2022-09-09T01:13:21;95692.00;;;14.30
10869;BMP180;62667;48.698;8.762;2022-09-09T01:15:51;95706.00;;;14.30
10869;BMP180;62667;48.698;8.762;2022-09-09T01:18:23;95702.00;;;14.30
10869;BMP180;62667;48.698;8.762;2022-09-09T01:20:59;95702.00;;;14.10
10869;BMP180;62667;48.698;8.762;2022-09-09T01:24:00;95706.00;;;14.30
10869;BMP180;62667;48.698;8.762;2022-09-09T01:26:35;95715.00;;;14.10
10869;BMP180;62667;48.698;8.762;2022-09-09T01:29:07;95724.00;;;14.10
10869;BMP180;62667;48.698;8.762;2022-09-09T01:31:37;95737.00;;;14.00
10869;BMP180;62667;48.698;8.762;2022-09-09T01:34:10;95718.00;;;14.10
10869;BMP180;62667;48.698;8.762;2022-09-09T01:36:44;95716.00;;;14.40
10869;BMP180;62667;48.698;8.762;2022-09-09T01:39:15;95711.00;;;14.30
10869;BMP180;62667;48.698;8.762;2022-09-09T01:41:44;95699.00;;;14.20
10869;BMP180;62667;48.698;8.762;2022-09-09T01:44:11;95699.00;;;14.50
10869;BMP180;62667;48.698;8.762;2022-09-09T01:46:38;95699.00;;;14.50
10869;BMP180;62667;48.698;8.762;2022-09-09T01:49:08;95701.00;;;14.50
10869;BMP180;62667;48.698;8.762;2022-09-09T01:51:36;95702.00;;;14.40
10869;BMP180;62667;48.698;8.762;2022-09-09T01:54:05;95692.00;;;14.30
10869;BMP180;62667;48.698;8.762;2022-09-09T01:56:40;95685.00;;;14.40
10869;BMP180;62667;48.698;8.762;2022-09-09T01:59:24;95684.00;;;14.60
10869;BMP180;62667;48.698;8.762;2022-09-09T02:02:06;95679.00;;;14.40
10869;BMP180;62667;48.698;8.762;2022-09-09T02:04:40;95691.00;;;14.30
10869;BMP180;62667;48.698;8.762;2022-09-09T02:07:21;95691.00;;;14.40
10869;BMP180;62667;48.698;8.762;2022-09-09T02:10:00;95703.00;;;14.40
10869;BMP180;62667;48.698;8.762;2022-09-09T02:12:31;95708.00;;;14.40
10869;BMP180;62667;48.698;8.762;2022-09-09T02:15:05;95708.00;;;14.30
10869;BMP180;62667;48.698;8.762;2022-09-09T02:17:35;95715.00;;;14.20
10869;BMP180;62667;48.698;8.762;2022-09-09T02:20:06;95710.00;;;14.10
10869;BMP180;62667;48.698;8.762;2022-09-09T02:22:34;95703.00;;;14.10
10869;BMP180;62667;48.698;8.762;2022-09-09T02:25:03;95703.00;;;14.10
10869;BMP180;62667;48.698;8.762;2022-09-09T02:27:31;95710.00;;;14.10
10869;BMP180;62667;48.698;8.762;2022-09-09T02:30:01;95700.00;;;14.10
10869;BMP180;62667;48.698;8.762;2022-09-09T02:32:30;95700.00;;;14.10
10869;BMP180;62667;48.698;8.762;2022-09-09T02:35:03;95696.00;;;14.10
10869;BMP180;62667;48.698;8.762;2022-09-09T02:37:35;95695.00;;;14.20
10869;BMP180;62667;48.698;8.762;2022-09-09T02:40:03;95685.00;;;14.20
10869;BMP180;62667;48.698;8.762;2022-09-09T02:42:31;95678.00;;;14.20
10869;BMP180;62667;48.698;8.762;2022-09-09T02:44:58;95675.00;;;14.20
10869;BMP180;62667;48.698;8.762;2022-09-09T02:47:31;95670.00;;;14.20
10869;BMP180;62667;48.698;8.762;2022-09-09T02:50:08;95674.00;;;14.10
10869;BMP180;62667;48.698;8.762;2022-09-09T02:52:47;95669.00;;;14.20
10869;BMP180;62667;48.698;8.762;2022-09-09T02:55:20;95674.00;;;14.20
10869;BMP180;62667;48.698;8.762;2022-09-09T02:57:51;95676.00;;;14.00
10869;BMP180;62667;48.698;8.762;2022-09-09T03:00:24;95672.00;;;13.80
10869;BMP180;62667;48.698;8.762;2022-09-09T03:02:51;95661.00;;;13.80
10869;BMP180;62667;48.698;8.762;2022-09-09T03:05:19;95661.00;;;13.80
10869;BMP180;62667;48.698;8.762;2022-09-09T03:07:46;95665.00;;;13.80
10869;BMP180;62667;48.698;8.762;2022-09-09T03:10:13;95666.00;;;13.70
10869;BMP180;62667;48.698;8.762;2022-09-09T03:12:40;95659.00;;;13.60
10869;BMP180;62667;48.698;8.762;2022-09-09T03:15:08;95657.00;;;13.70
10869;BMP180;62667;48.698;8.762;2022-09-09T03:17:36;95653.00;;;13.60
10869;BMP180;62667;48.698;8.762;2022-09-09T03:20:06;95657.00;;;13.60
10869;BMP180;62667;48.698;8.762;2022-09-09T03:22:34;95664.00;;;13.60
10869;BMP180;62667;48.698;8.762;2022-09-09T03:25:00;95672.00;;;13.60
10869;BMP180;62667;48.698;8.762;2022-09-09T03:27:29;95678.00;;;13.40
10869;BMP180;62667;48.698;8.762;2022-09-09T03:29:56;95673.00;;;13.30
10869;BMP180;62667;48.698;8.762;2022-09-09T03:32:26;95670.00;;;13.30
10869;BMP180;62667;48.698;8.762;2022-09-09T03:34:53;95684.00;;;13.20
10869;BMP180;62667;48.698;8.762;2022-09-09T03:37:21;95687.00;;;13.10
10869;BMP180;62667;48.698;8.762;2022-09-09T03:39:48;95684.00;;;13.00
10869;BMP180;62667;48.698;8.762;2022-09-09T03:42:16;95688.00;;;13.10
10869;BMP180;62667;48.698;8.762;2022-09-09T03:44:45;95680.00;;;13.10
10869;BMP180;62667;48.698;8.762;2022-09-09T03:47:18;95673.00;;;13.30
10869;BMP180;62667;48.698;8.762;2022-09-09T03:49:45;95669.00;;;13.50
10869;BMP180;62667;48.698;8.762;2022-09-09T03:52:12;95672.00;;;13.40
10869;BMP180;62667;48.698;8.762;2022-09-09T03:54:41;95675.00;;;13.40
10869;BMP180;62667;48.698;8.762;2022-09-09T03:57:09;95679.00;;;13.30
10869;BMP180;62667;48.698;8.762;2022-09-09T03:59:36;95679.00;;;13.20
10869;BMP180;62667;48.698;8.762;2022-09-09T04:02:04;95683.00;;;13.20
10869;BMP180;62667;48.698;8.762;2022-09-09T04:04:31;95675.00;;;13.30
10869;BMP180;62667;48.698;8.762;2022-09-09T04:06:58;95674.00;;;13.20
10869;BMP180;62667;48.698;8.762;2022-09-09T04:09:25;95674.00;;;13.30
10869;BMP180;62667;48.698;8.762;2022-09-09T04:11:52;95677.00;;;13.30
10869;BMP180;62667;48.698;8.762;2022-09-09T04:14:20;95683.00;;;13.10
10869;BMP180;62667;48.698;8.762;2022-09-09T04:16:46;95665.00;;;13.00
10869;BMP180;62667;48.698;8.762;2022-09-09T04:19:13;95684.00;;;13.20
10869;BMP180;62667;48.698;8.762;2022-09-09T04:21:42;95682.00;;;13.20
10869;BMP180;62667;48.698;8.762;2022-09-09T04:24:09;95686.00;;;13.20
10869;BMP180;62667;48.698;8.762;2022-09-09T04:26:37;95687.00;;;13.10
10869;BMP180;62667;48.698;8.762;2022-09-09T04:29:04;95689.00;;;13.00
10869;BMP180;62667;48.698;8.762;2022-09-09T04:31:33;95689.00;;;13.00
10869;BMP180;62667;48.698;8.762;2022-09-09T04:34:00;95688.00;;;13.00
10869;BMP180;62667;48.698;8.762;2022-09-09T04:36:31;95688.00;;;13.00
10869;BMP180;62667;48.698;8.762;2022-09-09T04:38:58;95685.00;;;12.90
10869;BMP180;62667;48.698;8.762;2022-09-09T04:41:25;95684.00;;;13.00
10869;BMP180;62667;48.698;8.762;2022-09-09T04:43:52;95687.00;;;13.10
10869;BMP180;62667;48.698;8.762;2022-09-09T04:46:20;95688.00;;;13.10
10869;BMP180;62667;48.698;8.762;2022-09-09T04:48:49;95698.00;;;13.10
10869;BMP180;62667;48.698;8.762;2022-09-09T04:51:16;95700.00;;;13.10
10869;BMP180;62667;48.698;8.762;2022-09-09T04:53:43;95699.00;;;13.10
10869;BMP180;62667;48.698;8.762;2022-09-09T04:56:11;95703.00;;;13.10
10869;BMP180;62667;48.698;8.762;2022-09-09T04:58:39;95702.00;;;13.10
10869;BMP180;62667;48.698;8.762;2022-09-09T05:01:10;95695.00;;;13.10
10869;BMP180;62667;48.698;8.762;2022-09-09T05:03:38;95703.00;;;13.10
10869;BMP180;62667;48.698;8.762;2022-09-09T05:06:06;95701.00;;;13.10
10869;BMP180;62667;48.698;8.762;2022-09-09T05:08:35;95702.00;;;13.10
10869;BMP180;62667;48.698;8.762;2022-09-09T05:11:02;95700.00;;;13.10
10869;BMP180;62667;48.698;8.762;2022-09-09T05:13:29;95705.00;;;13.10
10869;BMP180;62667;48.698;8.762;2022-09-09T05:15:59;95704.00;;;13.30
10869;BMP180;62667;48.698;8.762;2022-09-09T05:18:26;95709.00;;;13.20
10869;BMP180;62667;48.698;8.762;2022-09-09T05:20:59;95719.00;;;13.20
10869;BMP180;62667;48.698;8.762;2022-09-09T05:23:26;95721.00;;;13.20
10869;BMP180;62667;48.698;8.762;2022-09-09T05:25:57;95719.00;;;13.20
10869;BMP180;62667;48.698;8.762;2022-09-09T05:28:25;95722.00;;;13.10
10869;BMP180;62667;48.698;8.762;2022-09-09T05:30:59;95728.00;;;13.20
10869;BMP180;62667;48.698;8.762;2022-09-09T05:33:27;95733.00;;;13.20
10869;BMP180;62667;48.698;8.762;2022-09-09T05:35:58;95724.00;;;13.20
10869;BMP180;62667;48.698;8.762;2022-09-09T05:38:25;95730.00;;;13.20
10869;BMP180;62667;48.698;8.762;2022-09-09T05:40:52;95730.00;;;13.20
10869;BMP180;62667;48.698;8.762;2022-09-09T05:43:19;95726.00;;;13.30
10869;BMP180;62667;48.698;8.762;2022-09-09T05:45:46;95723.00;;;13.40
10869;BMP180;62667;48.698;8.762;2022-09-09T05:48:14;95724.00;;;13.40
10869;BMP180;62667;48.698;8.762;2022-09-09T05:50:41;95721.00;;;13.50
10869;BMP180;62667;48.698;8.762;2022-09-09T05:53:09;95720.00;;;13.50
10869;BMP180;62667;48.698;8.762;2022-09-09T05:55:36;95721.00;;;13.50
10869;BMP180;62667;48.698;8.762;2022-09-09T05:58:03;95711.00;;;13.60
10869;BMP180;62667;48.698;8.762;2022-09-09T06:00:30;95719.00;;;13.70
10869;BMP180;62667;48.698;8.762;2022-09-09T06:02:58;95722.00;;;13.70
10869;BMP180;62667;48.698;8.762;2022-09-09T06:05:25;95716.00;;;13.80
10869;BMP180;62667;48.698;8.762;2022-09-09T06:07:54;95721.00;;;13.80
10869;BMP180;62667;48.698;8.762;2022-09-09T06:10:22;95729.00;;;13.90
10869;BMP180;62667;48.698;8.762;2022-09-09T06:12:52;95727.00;;;14.00
10869;BMP180;62667;48.698;8.762;2022-09-09T06:15:19;95723.00;;;14.10
10869;BMP180;62667;48.698;8.762;2022-09-09T06:17:45;95721.00;;;14.30
10869;BMP180;62667;48.698;8.762;2022-09-09T06:20:15;95727.00;;;14.40
10869;BMP180;62667;48.698;8.762;2022-09-09T06:22:44;95720.00;;;14.50
10869;BMP180;62667;48.698;8.762;2022-09-09T06:25:12;95723.00;;;14.50
10869;BMP180;62667;48.698;8.762;2022-09-09T06:27:40;95727.00;;;14.60
10869;BMP180;62667;48.698;8.762;2022-09-09T06:30:09;95721.00;;;14.60
10869;BMP180;62667;48.698;8.762;2022-09-09T06:32:36;95718.00;;;14.60
10869;BMP180;62667;48.698;8.762;2022-09-09T06:35:06;95721.00;;;14.70
10869;BMP180;62667;48.698;8.762;2022-09-09T06:37:34;95721.00;;;14.70
10869;BMP180;62667;48.698;8.762;2022-09-09T06:40:00;95737.00;;;14.70
10869;BMP180;62667;48.698;8.762;2022-09-09T06:42:28;95731.00;;;14.70
10869;BMP180;62667;48.698;8.762;2022-09-09T06:44:55;95733.00;;;14.80
10869;BMP180;62667;48.698;8.762;2022-09-09T06:47:22;95729.00;;;14.80
10869;BMP180;62667;48.698;8.762;2022-09-09T06:49:49;95723.00;;;14.90
10869;BMP180;62667;48.698;8.762;2022-09-09T06:52:18;95732.00;;;14.90
10869;BMP180;62667;48.698;8.762;2022-09-09T06:54:48;95731.00;;;15.00
10869;BMP180;62667;48.698;8.762;2022-09-09T06:57:14;95725.00;;;15.10
10869;BMP180;62667;48.698;8.762;2022-09-09T06:59:41;95728.00;;;15.20
10869;BMP180;62667;48.698;8.762;2022-09-09T07:02:09;95723.00;;;15.30
10869;BMP180;62667;48.698;8.762;2022-09-09T07:04:36;95719.00;;;15.50
10869;BMP180;62667;48.698;8.762;2022-09-09T07:07:03;95734.00;;;15.70
10869;BMP180;62667;48.698;8.762;2022-09-09T07:09:30;95729.00;;;15.70
10869;BMP180;62667;48.698;8.762;2022-09-09T07:11:57;95737.00;;;15.70
10869;BMP180;62667;48.698;8.762;2022-09-09T07:14:25;95728.00;;;15.90
10869;BMP180;62667;48.698;8.762;2022-09-09T07:16:53;95722.00;;;16.10
10869;BMP180;62667;48.698;8.762;2022-09-09T07:19:20;95728.00;;;16.30
10869;BMP180;62667;48.698;8.762;2022-09-09T07:21:47;95727.00;;;16.20
10869;BMP180;62667;48.698;8.762;2022-09-09T07:24:14;95733.00;;;16.10
10869;BMP180;62667;48.698;8.762;2022-09-09T07:26:41;95726.00;;;15.80
10869;BMP180;62667;48.698;8.762;2022-09-09T07:29:09;95730.00;;;15.70
10869;BMP180;62667;48.698;8.762;2022-09-09T07:31:37;95739.00;;;15.90
10869;BMP180;62667;48.698;8.762;2022-09-09T07:34:08;95731.00;;;16.10
10869;BMP180;62667;48.698;8.762;2022-09-09T07:36:37;95731.00;;;16.00
10869;BMP180;62667;48.698;8.762;2022-09-09T07:39:06;95741.00;;;16.00
10869;BMP180;62667;48.698;8.762;2022-09-09T07:41:35;95740.00;;;16.10
10869;BMP180;62667;48.698;8.762;2022-09-09T07:44:05;95736.00;;;16.20
10869;BMP180;62667;48.698;8.762;2022-09-09T07:46:33;95731.00;;;16.30
10869;BMP180;62667;48.698;8.762;2022-09-09T07:49:03;95734.00;;;16.00
10869;BMP180;62667;48.698;8.762;2022-09-09T07:51:32;95732.00;;;16.30
10869;BMP180;62667;48.698;8.762;2022-09-09T07:54:01;95734.00;;;16.50
10869;BMP180;62667;48.698;8.762;2022-09-09T07:56:29;95749.00;;;16.30
10869;BMP180;62667;48.698;8.762;2022-09-09T07:58:57;95765.00;;;16.40
10869;BMP180;62667;48.698;8.762;2022-09-09T08:01:29;95756.00;;;16.40
10869;BMP180;62667;48.698;8.762;2022-09-09T08:03:58;95755.00;;;16.30
10869;BMP180;62667;48.698;8.762;2022-09-09T08:06:26;95760.00;;;16.40
10869;BMP180;62667;48.698;8.762;2022-09-09T08:08:53;95753.00;;;16.50
10869;BMP180;62667;48.698;8.762;2022-09-09T08:11:25;95753.00;;;16.50
10869;BMP180;62667;48.698;8.762;2022-09-09T08:13:55;95750.00;;;16.50
10869;BMP180;62667;48.698;8.762;2022-09-09T08:16:24;95755.00;;;17.00
10869;BMP180;62667;48.698;8.762;2022-09-09T08:18:52;95751.00;;;16.80
10869;BMP180;62667;48.698;8.762;2022-09-09T08:21:21;95746.00;;;17.10
10869;BMP180;62667;48.698;8.762;2022-09-09T08:23:52;95752.00;;;17.20
10869;BMP180;62667;48.698;8.762;2022-09-09T08:26:20;95754.00;;;17.30
10869;BMP180;62667;48.698;8.762;2022-09-09T08:28:49;95751.00;;;17.60
10869;BMP180;62667;48.698;8.762;2022-09-09T08:31:19;95752.00;;;17.80
10869;BMP180;62667;48.698;8.762;2022-09-09T08:33:47;95754.00;;;17.50
10869;BMP180;62667;48.698;8.762;2022-09-09T08:36:16;95758.00;;;17.20
10869;BMP180;62667;48.698;8.762;2022-09-09T08:38:46;95769.00;;;16.90
10869;BMP180;62667;48.698;8.762;2022-09-09T08:44:22;95767.00;;;17.00
10869;BMP180;62667;48.698;8.762;2022-09-09T08:46:57;95775.00;;;16.80
10869;BMP180;62667;48.698;8.762;2022-09-09T08:49:44;95775.00;;;17.10
10869;BMP180;62667;48.698;8.762;2022-09-09T08:52:19;95775.00;;;17.50
10869;BMP180;62667;48.698;8.762;2022-09-09T08:54:48;95770.00;;;17.80
10869;BMP180;62667;48.698;8.762;2022-09-09T08:57:21;95771.00;;;17.50
10869;BMP180;62667;48.698;8.762;2022-09-09T08:59:53;95770.00;;;17.50
10869;BMP180;62667;48.698;8.762;2022-09-09T09:02:27;95767.00;;;17.80
10869;BMP180;62667;48.698;8.762;2022-09-09T09:05:07;95778.00;;;17.90
10869;BMP180;62667;48.698;8.762;2022-09-09T09:07:50;95776.00;;;18.00
10869;BMP180;62667;48.698;8.762;2022-09-09T09:10:30;95763.00;;;18.40
10869;BMP180;62667;48.698;8.762;2022-09-09T09:13:02;95769.00;;;18.40
10869;BMP180;62667;48.698;8.762;2022-09-09T09:15:33;95748.00;;;18.10
10869;BMP180;62667;48.698;8.762;2022-09-09T09:18:03;95747.00;;;18.60
10869;BMP180;62667;48.698;8.762;2022-09-09T09:20:37;95740.00;;;18.60
10869;BMP180;62667;48.698;8.762;2022-09-09T09:23:16;95740.00;;;19.20
10869;BMP180;62667;48.698;8.762;2022-09-09T09:25:45;95742.00;;;19.40
10869;BMP180;62667;48.698;8.762;2022-09-09T09:28:17;95741.00;;;19.60
10869;BMP180;62667;48.698;8.762;2022-09-09T09:30:50;95739.00;;;19.20
10869;BMP180;62667;48.698;8.762;2022-09-09T09:33:22;95735.00;;;19.30
10869;BMP180;62667;48.698;8.762;2022-09-09T09:35:53;95732.00;;;18.70
10869;BMP180;62667;48.698;8.762;2022-09-09T09:38:22;95736.00;;;18.80
10869;BMP180;62667;48.698;8.762;2022-09-09T09:40:53;95725.00;;;19.00
10869;BMP180;62667;48.698;8.762;2022-09-09T09:43:26;95724.00;;;19.40
10869;BMP180;62667;48.698;8.762;2022-09-09T09:45:57;95733.00;;;19.20
10869;BMP180;62667;48.698;8.762;2022-09-09T09:48:25;95728.00;;;19.00
10869;BMP180;62667;48.698;8.762;2022-09-09T09:50:55;95751.00;;;18.50
10869;BMP180;62667;48.698;8.762;2022-09-09T09:53:27;95734.00;;;18.40
10869;BMP180;62667;48.698;8.762;2022-09-09T09:55:57;95719.00;;;18.30
10869;BMP180;62667;48.698;8.762;2022-09-09T09:58:26;95706.00;;;18.70
10869;BMP180;62667;48.698;8.762;2022-09-09T10:00:55;95715.00;;;18.80
10869;BMP180;62667;48.698;8.762;2022-09-09T10:03:25;95715.00;;;19.10
10869;BMP180;62667;48.698;8.762;2022-09-09T10:05:53;95711.00;;;19.40
10869;BMP180;62667;48.698;8.762;2022-09-09T10:08:20;95710.00;;;19.60
10869;BMP180;62667;48.698;8.762;2022-09-09T10:11:00;95727.00;;;19.80
10869;BMP180;62667;48.698;8.762;2022-09-09T10:13:35;95718.00;;;19.70
10869;BMP180;62667;48.698;8.762;2022-09-09T10:16:17;95726.00;;;19.80
10869;BMP180;62667;48.698;8.762;2022-09-09T10:18:57;95736.00;;;19.40
10869;BMP180;62667;48.698;8.762;2022-09-09T10:27:43;95758.00;;;18.60
10869;BMP180;62667;48.698;8.762;2022-09-09T10:30:17;95755.00;;;18.00
10869;BMP180;62667;48.698;8.762;2022-09-09T10:32:51;95742.00;;;17.80
10869;BMP180;62667;48.698;8.762;2022-09-09T10:35:30;95758.00;;;18.10
10869;BMP180;62667;48.698;8.762;2022-09-09T10:38:15;95769.00;;;18.00
10869;BMP180;62667;48.698;8.762;2022-09-09T10:40:58;95772.00;;;17.90
10869;BMP180;62667;48.698;8.762;2022-09-09T10:43:43;95788.00;;;17.80
10869;BMP180;62667;48.698;8.762;2022-09-09T10:46:18;95779.00;;;17.50
10869;BMP180;62667;48.698;8.762;2022-09-09T10:49:02;95785.00;;;17.20
10869;BMP180;62667;48.698;8.762;2022-09-09T10:51:43;95806.00;;;16.70
10869;BMP180;62667;48.698;8.762;2022-09-09T10:54:32;95818.00;;;16.40
10869;BMP180;62667;48.698;8.762;2022-09-09T10:57:08;95826.00;;;16.10
10869;BMP180;62667;48.698;8.762;2022-09-09T10:59:38;95829.00;;;15.90
10869;BMP180;62667;48.698;8.762;2022-09-09T11:02:14;95831.00;;;15.90
10869;BMP180;62667;48.698;8.762;2022-09-09T11:04:48;95835.00;;;15.60
10869;BMP180;62667;48.698;8.762;2022-09-09T11:07:25;95823.00;;;15.50
10869;BMP180;62667;48.698;8.762;2022-09-09T11:10:01;95834.00;;;15.80
10869;BMP180;62667;48.698;8.762;2022-09-09T11:12:29;95832.00;;;15.80
10869;BMP180;62667;48.698;8.762;2022-09-09T11:15:02;95823.00;;;15.80
10869;BMP180;62667;48.698;8.762;2022-09-09T11:17:36;95815.00;;;15.80
10869;BMP180;62667;48.698;8.762;2022-09-09T11:20:10;95801.00;;;16.20
10869;BMP180;62667;48.698;8.762;2022-09-09T11:22:39;95792.00;;;16.50
10869;BMP180;62667;48.698;8.762;2022-09-09T11:25:15;95763.00;;;17.10
10869;BMP180;62667;48.698;8.762;2022-09-09T11:27:51;95785.00;;;17.80
10869;BMP180;62667;48.698;8.762;2022-09-09T11:30:21;95783.00;;;18.10
10869;BMP180;62667;48.698;8.762;2022-09-09T11:33:15;95777.00;;;18.00
10869;BMP180;62667;48.698;8.762;2022-09-09T11:36:06;95773.00;;;17.80
10869;BMP180;62667;48.698;8.762;2022-09-09T11:38:44;95771.00;;;17.90
10869;BMP180;62667;48.698;8.762;2022-09-09T11:41:12;95760.00;;;17.80
10869;BMP180;62667;48.698;8.762;2022-09-09T11:43:43;95759.00;;;18.00
10869;BMP180;62667;48.698;8.762;2022-09-09T11:46:11;95758.00;;;18.60
10869;BMP180;62667;48.698;8.762;2022-09-09T11:48:40;95731.00;;;18.30
10869;BMP180;62667;48.698;8.762;2022-09-09T11:51:11;95740.00;;;18.30
10869;BMP180;62667;48.698;8.762;2022-09-09T11:53:52;95731.00;;;18.80
10869;BMP180;62667;48.698;8.762;2022-09-09T11:56:27;95727.00;;;19.40
10869;BMP180;62667;48.698;8.762;2022-09-09T11:58:57;95734.00;;;19.40
10869;BMP180;62667;48.698;8.762;2022-09-09T12:01:36;95724.00;;;18.80
10869;BMP180;62667;48.698;8.762;2022-09-09T12:04:13;95737.00;;;19.30
10869;BMP180;62667;48.698;8.762;2022-09-09T12:06:46;95734.00;;;19.60
10869;BMP180;62667;48.698;8.762;2022-09-09T12:09:24;95735.00;;;19.10
10869;BMP180;62667;48.698;8.762;2022-09-09T12:11:52;95731.00;;;19.30
10869;BMP180;62667;48.698;8.762;2022-09-09T12:14:34;95729.00;;;19.20
10869;BMP180;62667;48.698;8.762;2022-09-09T12:17:16;95724.00;;;19.40
10869;BMP180;62667;48.698;8.762;2022-09-09T12:19:47;95719.00;;;19.70
10869;BMP180;62667;48.698;8.762;2022-09-09T12:22:23;95708.00;;;20.20
10869;BMP180;62667;48.698;8.762;2022-09-09T12:24:58;95716.00;;;19.70
10869;BMP180;62667;48.698;8.762;2022-09-09T12:27:31;95709.00;;;19.50
10869;BMP180;62667;48.698;8.762;2022-09-09T12:30:07;95705.00;;;19.40
10869;BMP180;62667;48.698;8.762;2022-09-09T12:32:38;95728.00;;;19.60
10869;BMP180;62667;48.698;8.762;2022-09-09T12:35:11;95726.00;;;19.40
10869;BMP180;62667;48.698;8.762;2022-09-09T12:37:41;95699.00;;;19.40
10869;BMP180;62667;48.698;8.762;2022-09-09T12:40:20;95716.00;;;20.10
10869;BMP180;62667;48.698;8.762;2022-09-09T12:42:47;95715.00;;;20.40
10869;BMP180;62667;48.698;8.762;2022-09-09T12:45:19;95719.00;;;20.20
10869;BMP180;62667;48.698;8.762;2022-09-09T12:47:48;95724.00;;;20.90
10869;BMP180;62667;48.698;8.762;2022-09-09T12:50:17;95722.00;;;20.10
10869;BMP180;62667;48.698;8.762;2022-09-09T12:52:49;95723.00;;;20.00
10869;BMP180;62667;48.698;8.762;2022-09-09T12:55:19;95688.00;;;19.90
10869;BMP180;62667;48.698;8.762;2022-09-09T12:57:48;95688.00;;;19.50
10869;BMP180;62667;48.698;8.762;2022-09-09T13:00:18;95690.00;;;20.00
10869;BMP180;62667;48.698;8.762;2022-09-09T13:02:49;95687.00;;;21.10
10869;BMP180;62667;48.698;8.762;2022-09-09T13:05:19;95672.00;;;20.60
10869;BMP180;62667;48.698;8.762;2022-09-09T13:07:47;95674.00;;;20.60
10869;BMP180;62667;48.698;8.762;2022-09-09T13:10:22;95678.00;;;20.60
10869;BMP180;62667;48.698;8.762;2022-09-09T13:12:50;95697.00;;;20.50
10869;BMP180;62667;48.698;8.762;2022-09-09T13:15:21;95695.00;;;21.10
10869;BMP180;62667;48.698;8.762;2022-09-09T13:17:54;95696.00;;;21.00
10869;BMP180;62667;48.698;8.762;2022-09-09T13:20:22;95695.00;;;21.30
10869;BMP180;62667;48.698;8.762;2022-09-09T13:22:51;95666.00;;;20.40
10869;BMP180;62667;48.698;8.762;2022-09-09T13:25:22;95673.00;;;20.30
10869;BMP180;62667;48.698;8.762;2022-09-09T13:27:56;95671.00;;;20.60
10869;BMP180;62667;48.698;8.762;2022-09-09T13:30:25;95681.00;;;20.90
10869;BMP180;62667;48.698;8.762;2022-09-09T13:33:20;95678.00;;;20.80
10869;BMP180;62667;48.698;8.762;2022-09-09T13:35:50;95686.00;;;21.00
10869;BMP180;62667;48.698;8.762;2022-09-09T13:38:20;95664.00;;;21.10
10869;BMP180;62667;48.698;8.762;2022-09-09T13:40:59;95659.00;;;21.70
10869;BMP180;62667;48.698;8.762;2022-09-09T13:43:29;95655.00;;;21.20
10869;BMP180;62667;48.698;8.762;2022-09-09T13:45:58;95676.00;;;20.40
10869;BMP180;62667;48.698;8.762;2022-09-09T13:48:25;95678.00;;;20.80
10869;BMP180;62667;48.698;8.762;2022-09-09T13:50:57;95670.00;;;21.00
10869;BMP180;62667;48.698;8.762;2022-09-09T13:53:27;95694.00;;;21.40
10869;BMP180;62667;48.698;8.762;2022-09-09T13:55:55;95651.00;;;20.90
10869;BMP180;62667;48.698;8.762;2022-09-09T13:58:23;95646.00;;;22.10
10869;BMP180;62667;48.698;8.762;2022-09-09T14:00:52;95673.00;;;22.10
10869;BMP180;62667;48.698;8.762;2022-09-09T14:03:19;95644.00;;;21.90
10869;BMP180;62667;48.698;8.762;2022-09-09T14:05:47;95689.00;;;21.50
10869;BMP180;62667;48.698;8.762;2022-09-09T14:08:22;95684.00;;;20.70
10869;BMP180;62667;48.698;8.762;2022-09-09T14:10:50;95677.00;;;21.80
10869;BMP180;62667;48.698;8.762;2022-09-09T14:13:18;95627.00;;;22.40
10869;BMP180;62667;48.698;8.762;2022-09-09T14:15:49;95645.00;;;23.50
10869;BMP180;62667;48.698;8.762;2022-09-09T14:18:16;95665.00;;;22.80
10869;BMP180;62667;48.698;8.762;2022-09-09T14:20:43;95663.00;;;23.10
10869;BMP180;62667;48.698;8.762;2022-09-09T14:23:11;95696.00;;;23.00
10869;BMP180;62667;48.698;8.762;2022-09-09T14:25:41;95672.00;;;21.70
10869;BMP180;62667;48.698;8.762;2022-09-09T14:28:12;95669.00;;;22.00
10869;BMP180;62667;48.698;8.762;2022-09-09T14:30:40;95630.00;;;23.10
10869;BMP180;62667;48.698;8.762;2022-09-09T14:33:08;95631.00;;;26.20
10869;BMP180;62667;48.698;8.762;2022-09-09T14:35:35;95683.00;;;25.20
10869;BMP180;62667;48.698;8.762;2022-09-09T14:38:03;95641.00;;;24.40
10869;BMP180;62667;48.698;8.762;2022-09-09T14:40:30;95684.00;;;24.30